Aledo, IL

6:50 PM CDT on July 23, 2014 (GMT -0500)
KILALEDO2 Elev 735 ft | 41.20 °N, 90.76 °W | Change Station

Current weather conditions updated 2 seconds ago

Clear
Clear
79.5 °F
Feels Like 80 °F
N
0.0
Wind Variable Wind from NNE
Gusts 5.1 mph

Tomorrow is forecast to be Cooler than today. Showers late tomorrow night.

Today
High -- | Low -- °F
--% Chance of Precip.
Yesterday
High -- | Low -- °F
Precip. -- in
5:50 AM 8:28 PM
Waning Crescent, 8% visible
Pressure 30.12 in
Visibility 10.0 miles
Clouds Mostly Cloudy 6000 ft
Heat Index 80 °F
Dew Point 60 °F
Humidity 51%
Rainfall 0.00 in
Snow Depth Not available.
UV 1 out of 12
Pollen 6.00 out of 12
Air Quality Not available.
Flu Activity Not available.
METAR KMLI 232252Z 02007KT 10SM BKN060 25/12 A3012 RMK AO2 SLP197 T02500122

More Conditions Fewer Conditions

Pressure 30.12 in
Visibility 10.0 miles
Clouds Mostly Cloudy 6000 ft
Heat Index 80 °F
Dew Point 60 °F
Humidity 51%
Rainfall 0.00 in
Snow Depth Not available.
UV 1 out of 12
Pollen 6.00 out of 12
Air Quality Not available.
Flu Activity Not available.
METAR KMLI 232252Z 02007KT 10SM BKN060 25/12 A3012 RMK AO2 SLP197 T02500122

More Conditions Fewer Conditions

10-Day Weather Forecast

Almanac

Astronomy

Jul. 23, 2014 Rise Set
Actual Time 5:50 AM CDT 8:28 PM CDT
Civil Twilight 5:18 AM CDT 9:00 PM CDT
Nautical Twilight 4:38 AM CDT 9:40 PM CDT
Astronomical Twilight 3:52 AM CDT 10:25 PM CDT
Moon 3:09 AM CDT 5:57 PM CDT
Length of Visible Light 15h 42m
Length of Day
14h 38m
Tomorrow will be 1m 47s shorter.
Waning Crescent, 8% of the Moon is Illuminated
Today
Waning Crescent
Jul 26
New
Aug 3
First Quarter
Aug 10
Full
Aug 17
Last Quarter

Today's Extremes

State Highs State Lows

Community

WunderPhotos

Upload Photos

1,736,817 photos uploaded!

Nearby

Snow Depth

Station Depth Elevation
No new snow has been reported.

Earthquake Activity

City Distance Mag. Time & Date
No recent earthquake activity has been reported nearby.
Minimum magnitude displayed is 2.5.

Coastal Water Temperatures

Place Temperature
No Stations Reporting

Nearby Weather Stations

Station Location Temp. Heat Index Dew Point Humidity Wind Precip. Elev Updated Type
Aledo, IL 79.5 °F 80 °F 60 °F 51% NNE  at  0.0 mph 0.00 in / hr 735 ft 6:50 PM CDT Rapid Fire
Milan, IL 75.4 °F 78 °F 53 °F 46% NW  at  2.0 mph 0.00 in / hr 653 ft 6:46 PM CDT Normal
West Central Davenport, Davenport, IA 77.5 °F 78 °F 47 °F 34% ENE  at  0.0 mph 0.00 in / hr 704 ft 6:50 PM CDT Normal
CPS, Biggsville, IL 76.0 °F 78 °F 62 °F 62% NE  at  8.0 mph 0.00 in / hr 659 ft 6:42 PM CDT Normal

Show More Stations Show Fewer Stations